Time;durP1;ratioP1;P1;durP2;ratioP2;P2;SDS_P1;SDS_P2;PMS_P1;PMS_P2;Temp;Humidity;BMP_temperature;BMP_pressure;BME280_temperature;BME280_humidity;BME280_pressure;Samples;Min_cycle;Max_cycle;Signal;HPM_P1;HPM_P2
2021/01/29 00:02:00;;;;;;;4.97;3.20;;;21.30;58.40;;;;;;6161238;22;101317;-80
2021/01/29 00:04:28;;;;;;;4.20;2.80;;;21.30;58.30;;;;;;6161628;22;103875;-80
2021/01/29 00:06:53;;;;;;;3.67;3.15;;;21.30;58.30;;;;;;6164205;22;106025;-81
2021/01/29 00:09:20;;;;;;;4.00;2.80;;;21.30;58.50;;;;;;6161605;22;101798;-80
2021/01/29 00:11:47;;;;;;;3.67;3.17;;;21.30;58.30;;;;;;6162308;22;108559;-79
2021/01/29 00:14:12;;;;;;;7.22;3.45;;;21.40;58.40;;;;;;6160904;22;100970;-79
2021/01/29 00:16:38;;;;;;;3.75;2.78;;;21.30;59.00;;;;;;6156541;22;126145;-80
2021/01/29 00:19:04;;;;;;;4.30;2.95;;;21.30;58.40;;;;;;6135728;22;108325;-81
2021/01/29 00:21:31;;;;;;;5.57;2.70;;;21.30;58.50;;;;;;6159294;22;100884;-81
2021/01/29 00:23:57;;;;;;;3.92;2.65;;;21.30;58.50;;;;;;6135471;22;121353;-80
2021/01/29 00:26:22;;;;;;;5.20;2.95;;;21.30;58.50;;;;;;6159913;22;129879;-82
2021/01/29 00:29:11;;;;;;;3.65;2.92;;;21.30;58.50;;;;;;6164360;22;103074;-82
2021/01/29 00:31:37;;;;;;;5.13;3.27;;;21.30;58.20;;;;;;6121296;22;107495;-82
2021/01/29 00:34:04;;;;;;;3.88;3.00;;;21.30;58.20;;;;;;6160943;22;105542;-82
2021/01/29 00:36:29;;;;;;;3.60;2.83;;;21.30;58.50;;;;;;6162373;22;103781;-82
2021/01/29 00:38:55;;;;;;;3.13;2.70;;;21.40;58.60;;;;;;6161676;22;100745;-81
2021/01/29 00:41:23;;;;;;;4.13;2.60;;;21.40;58.60;;;;;;6136993;22;109285;-80
2021/01/29 00:43:50;;;;;;;3.70;2.90;;;21.40;58.50;;;;;;6161160;22;102388;-79
2021/01/29 00:46:21;;;;;;;3.28;2.70;;;21.40;58.40;;;;;;6158648;22;108470;-79
2021/01/29 00:48:47;;;;;;;4.28;2.85;;;21.40;58.50;;;;;;6161959;22;101363;-79
2021/01/29 00:51:13;;;;;;;3.95;2.88;;;21.40;58.50;;;;;;6159041;22;109063;-80
2021/01/29 00:53:51;;;;;;;4.28;2.70;;;21.30;58.50;;;;;;6160017;22;101880;-80
2021/01/29 00:56:16;;;;;;;4.25;2.92;;;21.30;58.60;;;;;;6185668;22;130384;-81
2021/01/29 00:58:44;;;;;;;3.70;2.83;;;21.30;58.70;;;;;;6161751;22;100885;-79
2021/01/29 01:01:09;;;;;;;5.97;2.97;;;21.20;58.70;;;;;;6133806;22;109295;-80
2021/01/29 01:03:35;;;;;;;4.20;2.78;;;21.30;58.90;;;;;;6157849;22;103968;-79
2021/01/29 01:06:00;;;;;;;3.67;2.35;;;21.30;59.10;;;;;;6158572;22;112614;-80
2021/01/29 01:08:26;;;;;;;3.58;2.88;;;21.30;59.50;;;;;;6158895;22;101364;-78
2021/01/29 01:10:55;;;;;;;3.92;2.70;;;21.30;58.90;;;;;;6158119;22;101149;-78
2021/01/29 01:13:21;;;;;;;3.90;2.50;;;21.30;58.70;;;;;;6156211;22;103431;-79
2021/01/29 01:15:47;;;;;;;5.30;2.70;;;21.30;58.80;;;;;;6186829;22;101886;-78
2021/01/29 01:18:12;;;;;;;5.43;2.50;;;21.30;58.70;;;;;;6133144;22;114217;-79
2021/01/29 01:20:38;;;;;;;3.70;2.30;;;21.30;58.70;;;;;;6188810;22;101331;-79
2021/01/29 01:23:04;;;;;;;3.33;2.20;;;21.30;58.70;;;;;;6134719;22;103401;-79
2021/01/29 01:25:32;;;;;;;2.88;2.38;;;21.30;58.60;;;;;;6156763;22;101798;-79
2021/01/29 01:27:58;;;;;;;4.68;2.83;;;21.30;58.80;;;;;;6155432;22;100832;-79
2021/01/29 01:30:34;;;;;;;4.13;2.58;;;21.30;58.70;;;;;;6157188;22;101093;-78
2021/01/29 01:33:00;;;;;;;3.97;2.42;;;21.30;58.60;;;;;;6155475;22;101777;-78
2021/01/29 01:35:26;;;;;;;3.53;2.33;;;21.30;58.60;;;;;;6130985;22;117154;-79
2021/01/29 01:37:52;;;;;;;2.65;2.22;;;21.40;58.70;;;;;;6158623;22;100892;-78
2021/01/29 01:40:20;;;;;;;5.03;2.70;;;21.30;58.70;;;;;;6156932;22;101360;-76
2021/01/29 01:42:46;;;;;;;4.68;2.35;;;21.40;58.80;;;;;;6157261;22;101030;-79
2021/01/29 01:45:27;;;;;;;4.50;2.40;;;21.30;58.70;;;;;;6184781;22;101260;-79
2021/01/29 01:48:04;;;;;;;6.57;2.70;;;21.40;58.70;;;;;;6187462;22;100901;-80
2021/01/29 01:50:34;;;;;;;4.05;2.45;;;21.40;58.70;;;;;;6159855;22;100730;-80
2021/01/29 01:53:01;;;;;;;2.58;2.10;;;21.30;58.60;;;;;;6159031;22;100938;-81
2021/01/29 01:55:30;;;;;;;3.53;2.38;;;21.30;58.60;;;;;;6158075;22;108405;-80
2021/01/29 01:57:55;;;;;;;3.35;2.10;;;21.40;58.60;;;;;;6159941;22;100739;-82
2021/01/29 02:00:26;;;;;;;2.92;2.40;;;21.30;58.40;;;;;;6136539;22;101203;-80
2021/01/29 02:03:00;;;;;;;4.28;2.30;;;21.40;58.60;;;;;;6155260;22;101310;-77
2021/01/29 02:05:31;;;;;;;3.10;2.55;;;21.30;58.60;;;;;;6157193;22;109977;-83
2021/01/29 02:07:58;;;;;;;4.78;2.90;;;21.40;58.60;;;;;;6160157;22;100831;-78
2021/01/29 02:10:25;;;;;;;3.53;2.20;;;21.40;58.80;;;;;;6157665;22;100904;-80
2021/01/29 02:12:51;;;;;;;3.25;2.10;;;21.40;58.70;;;;;;6155314;22;114197;-79
2021/01/29 02:15:17;;;;;;;3.65;2.38;;;21.40;58.70;;;;;;6158268;22;117273;-80
2021/01/29 02:17:49;;;;;;;2.97;1.83;;;21.40;58.60;;;;;;6158128;22;101018;-81
2021/01/29 02:20:27;;;;;;;4.10;2.13;;;21.40;58.80;;;;;;6183837;22;100922;-83
2021/01/29 02:23:13;;;;;;;4.13;2.00;;;21.40;58.80;;;;;;6182901;22;100928;-81
2021/01/29 02:25:51;;;;;;;4.40;2.30;;;21.40;58.90;;;;;;6157739;22;103409;-79
2021/01/29 02:28:26;;;;;;;4.30;2.25;;;21.40;58.70;;;;;;6132137;22;100285;-78
2021/01/29 02:30:54;;;;;;;3.65;2.13;;;21.40;58.70;;;;;;6181269;22;101255;-78
2021/01/29 02:33:30;;;;;;;3.73;2.23;;;21.30;58.80;;;;;;6188887;22;102814;-77
2021/01/29 02:36:33;;;;;;;5.18;2.17;;;21.30;58.80;;;;;;6184688;22;101350;-78
2021/01/29 02:39:08;;;;;;;3.92;2.20;;;21.30;58.80;;;;;;6184385;22;100710;-78
2021/01/29 02:42:08;;;;;;;4.15;2.00;;;21.30;59.50;;;;;;6131897;22;100257;-76
2021/01/29 02:44:35;;;;;;;;;;;21.30;58.90;;;;;;6133758;22;102877;-78
2021/01/29 02:47:05;;;;;;;19.85;3.53;;;21.30;58.80;;;;;;6153700;22;106681;-77
2021/01/29 02:49:37;;;;;;;8.98;3.38;;;21.20;59.10;;;;;;6130377;22;101388;-79
2021/01/29 02:52:09;;;;;;;17.33;3.67;;;21.10;59.20;;;;;;6181742;22;101089;-76
2021/01/29 02:54:44;;;;;;;18.83;3.50;;;21.00;59.50;;;;;;6129205;22;104340;-78
2021/01/29 02:57:21;;;;;;;18.65;3.58;;;20.90;59.50;;;;;;6154585;22;100702;-78
2021/01/29 02:59:56;;;;;;;11.82;3.30;;;20.80;59.70;;;;;;6130317;22;100877;-78
2021/01/29 03:02:50;;;;;;;8.55;2.92;;;20.80;59.70;;;;;;6180048;22;100737;-78
2021/01/29 03:05:33;;;;;;;9.85;3.30;;;20.70;59.60;;;;;;6157787;22;102540;-80
2021/01/29 03:08:07;;;;;;;10.02;3.05;;;20.70;59.70;;;;;;6156005;22;101441;-76
2021/01/29 03:10:34;;;;;;;13.68;3.03;;;20.60;59.90;;;;;;6154960;22;101301;-79
2021/01/29 03:13:04;;;;;;;15.75;2.90;;;20.60;60.00;;;;;;6129590;22;100743;-79
2021/01/29 03:15:36;;;;;;;11.73;3.10;;;20.60;60.30;;;;;;6154064;22;116261;-79
2021/01/29 03:18:18;;;;;;;8.45;2.80;;;20.60;60.20;;;;;;6131367;22;113051;-79
2021/01/29 03:20:49;;;;;;;10.23;2.85;;;20.50;60.10;;;;;;6156651;22;100839;-78
2021/01/29 03:23:27;;;;;;;7.40;3.00;;;20.50;60.00;;;;;;6156628;22;101369;-79
2021/01/29 03:26:03;;;;;;;8.65;3.15;;;20.40;60.10;;;;;;6159953;22;105263;-79
2021/01/29 03:28:33;;;;;;;9.95;2.67;;;20.50;60.20;;;;;;6159626;22;111460;-80
2021/01/29 03:30:59;;;;;;;7.38;3.08;;;20.40;60.30;;;;;;6160567;22;100702;-79
2021/01/29 03:33:26;;;;;;;7.43;2.60;;;20.40;60.50;;;;;;6159916;22;100975;-79
2021/01/29 03:36:01;;;;;;;6.68;2.42;;;20.30;60.20;;;;;;6161315;22;104783;-78
2021/01/29 03:38:36;;;;;;;6.35;2.58;;;20.30;60.20;;;;;;6159810;22;105243;-78
2021/01/29 03:54:56;;;;;;;7.30;2.53;;;20.30;59.90;;;;;;5055900;27;101189;-79
2021/01/29 03:57:27;;;;;;;6.03;2.75;;;20.20;60.40;;;;;;5035152;27;100835;-79
2021/01/29 04:00:29;;;;;;;7.88;2.58;;;20.20;60.60;;;;;;5009850;27;101288;-80
2021/01/29 04:03:03;;;;;;;6.25;2.30;;;20.10;60.50;;;;;;5017904;27;103086;-77
2021/01/29 04:05:37;;;;;;;6.40;2.50;;;20.10;60.70;;;;;;5014145;27;103418;-78
2021/01/29 04:08:18;;;;;;;9.02;2.88;;;20.10;60.90;;;;;;5041220;27;101451;-78
2021/01/29 04:10:46;;;;;;;5.70;2.00;;;20.10;60.80;;;;;;5035615;27;101322;-79
2021/01/29 04:13:17;;;;;;;9.63;2.25;;;20.10;60.80;;;;;;5011193;27;101803;-79
2021/01/29 04:15:48;;;;;;;7.90;2.50;;;20.10;60.80;;;;;;5022438;27;105835;-78
2021/01/29 04:18:15;;;;;;;6.68;2.63;;;20.00;60.80;;;;;;5021643;27;101421;-79
2021/01/29 04:20:48;;;;;;;6.38;2.47;;;20.00;60.90;;;;;;5037972;27;101283;-80
2021/01/29 04:23:49;;;;;;;5.03;2.10;;;20.00;60.70;;;;;;5027812;27;101115;-79
2021/01/29 04:26:57;;;;;;;4.22;2.20;;;20.00;61.10;;;;;;5032490;27;103044;-79
2021/01/29 04:29:56;;;;;;;5.85;2.00;;;20.00;61.30;;;;;;5019333;27;101250;-79
2021/01/29 04:32:24;;;;;;;8.13;2.28;;;20.00;61.30;;;;;;5016917;27;101124;-79
2021/01/29 04:34:54;;;;;;;6.53;2.35;;;20.00;61.30;;;;;;5011582;27;101893;-79
2021/01/29 04:37:25;;;;;;;4.13;2.13;;;20.00;61.20;;;;;;5023699;27;110241;-78
2021/01/29 04:39:53;;;;;;;6.40;2.30;;;20.00;61.50;;;;;;5016603;27;101309;-78
2021/01/29 04:42:35;;;;;;;6.13;2.13;;;20.00;61.30;;;;;;5003414;27;101080;-79
2021/01/29 04:45:10;;;;;;;5.38;2.30;;;20.00;61.70;;;;;;5009665;27;102343;-79
2021/01/29 04:48:15;;;;;;;5.88;2.30;;;20.00;61.70;;;;;;5039280;27;100950;-79
2021/01/29 04:51:06;;;;;;;5.28;2.50;;;20.00;61.80;;;;;;5002422;27;101316;-80
2021/01/29 04:53:58;;;;;;;4.93;2.17;;;20.00;62.00;;;;;;5044580;27;101004;-80
2021/01/29 04:56:33;;;;;;;8.52;2.10;;;20.00;62.20;;;;;;5019234;28;101426;-80
2021/01/29 04:59:22;;;;;;;4.53;1.88;;;19.90;62.10;;;;;;5017412;28;103424;-79
2021/01/29 05:02:12;;;;;;;4.80;1.83;;;19.90;62.30;;;;;;5000560;28;100917;-79
2021/01/29 05:04:45;;;;;;;4.97;2.33;;;19.90;62.20;;;;;;5030037;28;100954;-80
2021/01/29 05:07:30;;;;;;;5.65;2.22;;;19.90;62.40;;;;;;5009334;28;105061;-79
2021/01/29 05:10:17;;;;;;;6.43;2.42;;;19.90;62.30;;;;;;5016813;28;100911;-80
2021/01/29 05:13:07;;;;;;;5.55;2.47;;;19.90;62.90;;;;;;5034743;28;101649;-79
2021/01/29 05:15:51;;;;;;;;;;;19.90;62.60;;;;;;5015069;28;101084;-79
2021/01/29 05:18:35;;;;;;;5.13;2.20;;;19.90;62.40;;;;;;5028477;28;101782;-79
2021/01/29 05:21:34;;;;;;;4.35;2.13;;;19.90;62.40;;;;;;5036489;28;101499;-78
2021/01/29 05:24:14;;;;;;;5.63;2.17;;;19.90;63.10;;;;;;5011459;28;101108;-76
2021/01/29 05:27:18;;;;;;;3.40;1.83;;;19.90;63.40;;;;;;5013897;28;101473;-80
2021/01/29 05:30:03;;;;;;;7.55;2.55;;;19.90;63.50;;;;;;5015630;27;101230;-78
2021/01/29 05:32:39;;;;;;;4.38;2.20;;;19.90;63.20;;;;;;5016706;28;110676;-80
2021/01/29 05:35:35;;;;;;;5.88;2.20;;;19.90;63.10;;;;;;5008810;28;101895;-80
2021/01/29 05:38:21;;;;;;;8.73;2.28;;;19.90;62.80;;;;;;5026262;28;101210;-78
2021/01/29 05:40:56;;;;;;;6.28;1.98;;;19.90;62.90;;;;;;5019424;28;103413;-79
2021/01/29 05:43:29;;;;;;;10.02;2.78;;;19.80;62.90;;;;;;5028854;28;101183;-78
2021/01/29 05:46:02;;;;;;;4.88;1.90;;;19.90;63.10;;;;;;5010765;28;101059;-79
2021/01/29 05:48:49;;;;;;;4.72;2.03;;;19.80;63.10;;;;;;4998066;28;101351;-80
2021/01/29 05:51:39;;;;;;;6.93;2.20;;;19.80;62.90;;;;;;5035561;28;102312;-78
2021/01/29 05:54:30;;;;;;;4.15;1.85;;;19.80;63.20;;;;;;5027645;28;101207;-79
2021/01/29 05:56:58;;;;;;;3.65;1.75;;;19.80;63.20;;;;;;5011602;28;102243;-78
2021/01/29 05:59:56;;;;;;;5.43;2.13;;;19.80;63.00;;;;;;5017189;28;100326;-79
2021/01/29 06:02:34;;;;;;;6.45;2.10;;;19.80;63.00;;;;;;5017694;28;103560;-79
2021/01/29 06:05:28;;;;;;;7.45;2.22;;;19.80;62.90;;;;;;5015858;27;102791;-79
2021/01/29 06:08:02;;;;;;;3.90;1.90;;;19.80;62.90;;;;;;5011804;28;101199;-80
2021/01/29 06:10:47;;;;;;;4.15;1.80;;;19.80;62.90;;;;;;5023944;28;101074;-80
2021/01/29 06:13:20;;;;;;;8.20;2.53;;;19.70;63.20;;;;;;5033270;28;101117;-78
2021/01/29 06:16:05;;;;;;;5.13;2.00;;;19.70;63.10;;;;;;5004263;28;102904;-80
2021/01/29 06:18:36;;;;;;;4.03;1.83;;;19.70;63.50;;;;;;5030808;28;101082;-79
2021/01/29 06:22:07;;;;;;;7.32;2.13;;;19.70;63.50;;;;;;5013648;28;100862;-79
2021/01/29 06:25:11;;;;;;;4.97;1.80;;;19.70;63.60;;;;;;4919239;28;104565;-80
2021/01/29 06:27:36;;;;;;;5.63;1.77;;;19.60;63.70;;;;;;5019599;28;101001;-79
2021/01/29 06:30:34;;;;;;;8.30;2.10;;;19.60;64.40;;;;;;5026947;28;101000;-78
2021/01/29 06:33:35;;;;;;;2.92;1.60;;;19.60;63.60;;;;;;5012197;28;100267;-77
2021/01/29 06:36:02;;;;;;;3.33;1.65;;;19.60;63.80;;;;;;4979913;27;101683;-79
2021/01/29 06:39:00;;;;;;;4.30;1.65;;;19.60;63.90;;;;;;5023262;28;101575;-79
2021/01/29 06:41:41;;;;;;;4.63;1.80;;;19.60;64.60;;;;;;5003225;28;101412;-79
2021/01/29 06:44:33;;;;;;;9.40;1.85;;;19.60;63.80;;;;;;5006294;28;100952;-78
2021/01/29 06:47:19;;;;;;;4.03;1.33;;;19.60;64.20;;;;;;5019578;28;105063;-80
2021/01/29 06:50:09;;;;;;;5.13;1.63;;;19.70;63.80;;;;;;5022689;28;102205;-79
2021/01/29 06:52:59;;;;;;;7.20;1.92;;;19.70;64.10;;;;;;5016475;28;101130;-78
2021/01/29 06:55:25;;;;;;;;;;;19.70;64.10;;;;;;5023730;28;101550;-79
2021/01/29 06:58:02;;;;;;;6.95;2.00;;;19.70;64.10;;;;;;5033590;28;100972;-80
2021/01/29 07:00:55;;;;;;;3.75;1.55;;;19.70;64.50;;;;;;5020464;28;103404;-79
2021/01/29 07:03:34;;;;;;;4.53;1.75;;;19.70;64.80;;;;;;4984491;28;100978;-78
2021/01/29 07:06:16;;;;;;;5.07;2.00;;;19.70;64.80;;;;;;5006466;28;101654;-80
2021/01/29 07:08:54;;;;;;;4.18;1.98;;;19.70;65.10;;;;;;5010158;28;113157;-78
2021/01/29 07:11:42;;;;;;;4.00;1.60;;;19.70;64.40;;;;;;5004285;28;119204;-79
2021/01/29 07:14:19;;;;;;;5.28;1.52;;;19.70;64.40;;;;;;5006430;28;101736;-78
2021/01/29 07:17:13;;;;;;;3.05;1.48;;;19.70;64.40;;;;;;5023861;28;101092;-79
2021/01/29 07:19:57;;;;;;;4.22;1.88;;;19.70;64.30;;;;;;5017713;28;104049;-79
2021/01/29 07:22:54;;;;;;;3.40;1.63;;;19.60;64.10;;;;;;5035974;28;101069;-80
2021/01/29 07:25:54;;;;;;;5.97;1.70;;;19.70;64.10;;;;;;5034751;28;100892;-78
2021/01/29 07:28:29;;;;;;;6.30;1.83;;;19.70;64.00;;;;;;4998760;28;101912;-78
2021/01/29 07:31:31;;;;;;;4.97;1.60;;;19.70;64.00;;;;;;5003642;28;101668;-80
2021/01/29 07:33:57;;;;;;;6.65;1.55;;;19.70;64.00;;;;;;5027336;28;101404;-80
2021/01/29 07:36:44;;;;;;;5.63;1.50;;;19.70;64.20;;;;;;5022676;28;101038;-80
2021/01/29 07:39:43;;;;;;;5.55;1.60;;;19.70;64.40;;;;;;5036612;28;100870;-79
2021/01/29 07:42:43;;;;;;;4.38;1.70;;;19.70;64.50;;;;;;5028109;28;102179;-78
2021/01/29 07:45:24;;;;;;;5.88;2.05;;;19.70;64.60;;;;;;4997635;28;101188;-81
2021/01/29 07:48:26;;;;;;;3.33;1.60;;;19.70;64.50;;;;;;5019147;28;100294;-79
2021/01/29 07:51:20;;;;;;;4.57;1.90;;;19.70;64.60;;;;;;4997785;28;101417;-80
2021/01/29 07:53:57;;;;;;;6.68;1.70;;;19.70;64.70;;;;;;5006060;28;115515;-79
2021/01/29 07:56:38;;;;;;;4.45;1.60;;;19.70;64.70;;;;;;5037207;28;101306;-80
2021/01/29 07:59:12;;;;;;;5.38;2.08;;;19.60;64.60;;;;;;5036687;28;101012;-79
2021/01/29 08:01:54;;;;;;;6.38;2.05;;;19.60;64.60;;;;;;5035957;28;101390;-77
2021/01/29 08:04:41;;;;;;;3.10;1.85;;;19.70;65.10;;;;;;5015384;28;101735;-79
2021/01/29 08:07:31;;;;;;;6.88;2.22;;;19.60;64.90;;;;;;4987792;28;103691;-81
2021/01/29 08:10:04;;;;;;;6.95;2.13;;;19.60;65.10;;;;;;5002041;28;100957;-79
2021/01/29 08:12:31;;;;;;;6.65;1.75;;;19.60;65.20;;;;;;4980294;28;101163;-79
2021/01/29 08:15:19;;;;;;;6.50;2.00;;;19.70;65.50;;;;;;4985611;28;120235;-78
2021/01/29 08:18:10;;;;;;;7.43;2.45;;;19.60;65.30;;;;;;5037648;28;100977;-81
2021/01/29 08:21:10;;;;;;;10.63;2.90;;;19.60;65.60;;;;;;4983474;28;101100;-79
2021/01/29 08:23:38;;;;;;;8.50;2.58;;;19.60;65.70;;;;;;5034344;28;101617;-77
2021/01/29 08:26:07;;;;;;;15.00;2.35;;;19.60;65.90;;;;;;5034899;28;101014;-80
2021/01/29 08:28:51;;;;;;;5.10;1.98;;;19.60;65.90;;;;;;5034656;27;101227;-78
2021/01/29 08:31:27;;;;;;;10.63;2.88;;;19.60;65.80;;;;;;5021224;28;101149;-78
2021/01/29 08:34:17;;;;;;;11.65;2.33;;;19.50;67.00;;;;;;5020018;28;101512;-79
2021/01/29 08:36:52;;;;;;;13.18;2.63;;;19.60;66.10;;;;;;5037620;28;101081;-81
2021/01/29 08:39:30;;;;;;;6.78;2.58;;;19.60;65.90;;;;;;5038299;28;101383;-79
2021/01/29 08:42:36;;;;;;;12.27;2.83;;;19.50;65.90;;;;;;5021018;28;100201;-80
2021/01/29 08:45:27;;;;;;;9.07;2.22;;;19.50;65.90;;;;;;4998607;28;101619;-80
2021/01/29 08:47:59;;;;;;;6.82;2.67;;;19.50;66.00;;;;;;5016132;28;101342;-79
2021/01/29 08:51:05;;;;;;;8.95;2.30;;;19.50;65.90;;;;;;4984196;28;119384;-79
2021/01/29 08:54:02;;;;;;;9.43;2.40;;;19.50;65.90;;;;;;4970923;28;100972;-80
2021/01/29 08:56:50;;;;;;;5.05;2.17;;;19.60;65.50;;;;;;4987271;28;100885;-80
2021/01/29 08:59:18;;;;;;;6.88;2.28;;;19.70;65.30;;;;;;5019561;28;101044;-79
2021/01/29 09:02:02;;;;;;;11.85;2.55;;;19.80;65.30;;;;;;4986310;28;101634;-81
2021/01/29 09:04:48;;;;;;;11.70;2.35;;;19.90;65.40;;;;;;5020366;28;100961;-79
2021/01/29 09:07:20;;;;;;;8.55;2.35;;;19.90;64.90;;;;;;5018406;28;101186;-79
2021/01/29 09:09:45;;;;;;;11.65;2.58;;;20.00;64.90;;;;;;5016584;28;104738;-78
2021/01/29 09:12:25;;;;;;;10.55;2.28;;;20.00;64.50;;;;;;5000328;28;101310;-79
2021/01/29 09:14:53;;;;;;;;;;;20.00;64.40;;;;;;4989386;28;100960;-76
2021/01/29 09:17:26;;;;;;;10.15;2.25;;;20.00;64.40;;;;;;5007763;28;101116;-79
2021/01/29 09:20:00;;;;;;;10.65;2.40;;;20.00;64.50;;;;;;4996227;28;101033;-78
2021/01/29 09:22:32;;;;;;;11.40;2.60;;;20.00;64.40;;;;;;5000393;28;102792;-79
2021/01/29 09:25:21;;;;;;;10.07;2.50;;;20.10;64.80;;;;;;5012153;28;100200;-79
2021/01/29 09:28:07;;;;;;;6.30;2.15;;;20.10;64.60;;;;;;5011728;28;101264;-79
2021/01/29 09:30:45;;;;;;;9.98;2.75;;;20.10;64.80;;;;;;5045185;28;115029;-79
2021/01/29 09:33:45;;;;;;;14.65;2.60;;;20.10;64.70;;;;;;5045278;28;100700;-80
2021/01/29 09:36:14;;;;;;;7.90;2.60;;;20.10;65.00;;;;;;5006955;28;100264;-79
2021/01/29 09:38:53;;;;;;;13.95;3.42;;;20.10;65.00;;;;;;5026097;28;100970;-78
2021/01/29 09:41:31;;;;;;;10.82;3.90;;;20.00;63.90;;;;;;5010748;28;101932;-78
2021/01/29 09:44:30;;;;;;;8.63;2.65;;;20.00;64.40;;;;;;5009833;28;102326;-77
2021/01/29 09:46:58;;;;;;;9.95;3.00;;;20.00;64.40;;;;;;4991228;28;101023;-77
2021/01/29 09:49:38;;;;;;;10.45;3.50;;;19.90;64.10;;;;;;4973529;28;101138;-79
2021/01/29 09:52:03;;;;;;;;;;;19.90;63.80;;;;;;4973329;28;104516;-78
2021/01/29 09:54:37;;;;;;;9.57;3.20;;;19.90;63.20;;;;;;5016378;28;104888;-78
2021/01/29 09:57:11;;;;;;;6.47;2.88;;;19.90;63.00;;;;;;5026292;28;100893;-79
2021/01/29 09:59:57;;;;;;;10.93;3.25;;;19.90;62.80;;;;;;5010555;28;101088;-78
2021/01/29 10:02:37;;;;;;;9.85;3.70;;;19.90;63.40;;;;;;5006106;28;103744;-78
2021/01/29 10:05:06;;;;;;;;;;;20.00;64.40;;;;;;4996156;27;103839;-78
2021/01/29 10:07:33;;;;;;;12.45;3.58;;;20.00;65.30;;;;;;5045947;27;100843;-78
2021/01/29 10:10:12;;;;;;;14.48;3.97;;;20.00;65.30;;;;;;4991358;28;101343;-77
2021/01/29 10:12:41;;;;;;;13.82;4.28;;;20.00;65.70;;;;;;5020176;28;108340;-79
2021/01/29 10:15:18;;;;;;;18.70;5.22;;;20.10;65.20;;;;;;5003389;28;101167;-77
2021/01/29 10:18:04;;;;;;;20.17;5.18;;;20.20;64.80;;;;;;4989616;28;101357;-78
2021/01/29 10:20:31;;;;;;;17.88;5.38;;;20.20;64.20;;;;;;5022360;28;101016;-79
2021/01/29 10:23:29;;;;;;;16.83;4.82;;;20.10;64.30;;;;;;4989572;28;111356;-79
2021/01/29 10:26:43;;;;;;;29.50;5.88;;;20.20;64.10;;;;;;5039148;28;106772;-77
2021/01/29 10:29:10;;;;;;;34.45;6.25;;;20.20;64.10;;;;;;4939690;28;101057;-78
2021/01/29 10:32:02;;;;;;;40.00;7.15;;;20.20;64.20;;;;;;4922281;28;101221;-79
2021/01/29 10:34:33;;;;;;;32.00;6.47;;;20.20;64.00;;;;;;4973311;28;101027;-79
2021/01/29 10:37:06;;;;;;;39.72;6.55;;;20.20;64.10;;;;;;5023189;28;101586;-79
2021/01/29 10:39:59;;;;;;;54.42;7.82;;;20.20;64.30;;;;;;4986545;28;100881;-78
2021/01/29 10:42:31;;;;;;;32.40;6.38;;;20.20;64.20;;;;;;5040374;28;100821;-78
2021/01/29 10:44:57;;;;;;;40.40;7.65;;;20.20;64.20;;;;;;5023391;28;101880;-79
2021/01/29 10:47:43;;;;;;;43.58;7.63;;;20.20;64.20;;;;;;5004364;28;129311;-79
2021/01/29 10:50:13;;;;;;;42.33;7.05;;;20.10;64.30;;;;;;5006106;28;100871;-79
2021/01/29 10:53:00;;;;;;;32.88;6.68;;;20.10;64.50;;;;;;5023855;28;101081;-78
2021/01/29 10:55:28;;;;;;;23.10;6.03;;;20.00;64.40;;;;;;4999674;28;102929;-79
2021/01/29 10:58:02;;;;;;;17.08;5.47;;;20.10;64.50;;;;;;4984970;28;101348;-80
2021/01/29 11:00:30;;;;;;;17.13;5.57;;;20.00;64.20;;;;;;5032009;28;101143;-81
2021/01/29 11:03:06;;;;;;;18.58;5.28;;;20.10;64.10;;;;;;4983561;28;101097;-80
2021/01/29 11:05:32;;;;;;;20.55;5.55;;;20.10;63.70;;;;;;4999664;28;101318;-80
2021/01/29 11:08:20;;;;;;;12.45;4.60;;;20.10;63.60;;;;;;5003623;28;100878;-78
2021/01/29 11:11:07;;;;;;;15.38;4.72;;;20.30;63.40;;;;;;5004048;28;101475;-81
2021/01/29 11:13:47;;;;;;;16.63;4.47;;;20.30;63.10;;;;;;4999879;28;100879;-81
2021/01/29 11:16:15;;;;;;;12.45;4.18;;;20.30;62.80;;;;;;5022047;28;102406;-78
2021/01/29 11:18:42;;;;;;;11.88;4.15;;;20.30;62.70;;;;;;5006284;28;102783;-81
2021/01/29 11:21:28;;;;;;;10.35;4.25;;;20.30;62.80;;;;;;5024095;28;101070;-81
2021/01/29 11:24:13;;;;;;;11.82;3.95;;;20.30;62.90;;;;;;5020853;28;101578;-79
2021/01/29 11:26:50;;;;;;;10.48;3.55;;;20.30;62.70;;;;;;5041178;28;100963;-80
2021/01/29 11:29:31;;;;;;;13.57;4.18;;;20.40;62.30;;;;;;5000901;28;102694;-81
2021/01/29 11:32:27;;;;;;;11.95;4.53;;;20.60;62.00;;;;;;4989638;28;101218;-81
2021/01/29 11:35:00;;;;;;;13.13;4.20;;;20.50;61.90;;;;;;5002662;28;101461;-80
2021/01/29 11:37:37;;;;;;;11.32;3.40;;;20.40;62.40;;;;;;4987597;28;103171;-79
2021/01/29 11:40:15;;;;;;;13.43;4.13;;;20.30;62.80;;;;;;5023876;28;106519;-79
2021/01/29 11:42:59;;;;;;;9.05;3.70;;;20.30;63.30;;;;;;5025971;28;100993;-80
2021/01/29 11:45:27;;;;;;;8.10;4.00;;;20.10;63.40;;;;;;5035893;28;101165;-79
2021/01/29 11:48:07;;;;;;;9.68;3.88;;;20.10;63.60;;;;;;5002094;28;100929;-80
2021/01/29 11:50:40;;;;;;;11.82;3.83;;;20.00;63.70;;;;;;4983003;28;104165;-79
2021/01/29 11:53:32;;;;;;;8.68;3.10;;;20.00;63.90;;;;;;4985774;28;101309;-80
2021/01/29 11:56:17;;;;;;;9.65;3.58;;;19.90;63.80;;;;;;5033278;28;100913;-80
2021/01/29 11:58:54;;;;;;;8.05;3.30;;;20.00;63.70;;;;;;5002891;28;103920;-79
2021/01/29 12:01:29;;;;;;;10.65;3.60;;;20.00;63.70;;;;;;5005362;28;101896;-79
2021/01/29 12:04:05;;;;;;;8.40;3.50;;;19.90;63.80;;;;;;4990206;28;101108;-79
2021/01/29 12:06:34;;;;;;;11.25;3.85;;;19.90;63.80;;;;;;5009451;28;101249;-80
2021/01/29 12:09:37;;;;;;;10.63;3.70;;;20.00;63.90;;;;;;5011492;28;101002;-78
2021/01/29 12:12:44;;;;;;;13.30;3.65;;;20.10;63.70;;;;;;5042895;28;101554;-81
2021/01/29 12:16:01;;;;;;;19.58;4.05;;;20.20;63.70;;;;;;5057018;28;100977;-81
2021/01/29 12:18:51;;;;;;;15.52;3.72;;;20.30;63.80;;;;;;5057534;28;101562;-83
2021/01/29 12:21:23;;;;;;;17.15;3.90;;;20.30;63.90;;;;;;5022602;28;102178;-82
2021/01/29 12:24:28;;;;;;;11.73;4.05;;;20.30;64.00;;;;;;5058623;28;101419;-80
2021/01/29 12:27:40;;;;;;;14.38;4.18;;;20.30;63.70;;;;;;5042190;28;100752;-79
2021/01/29 12:31:00;;;;;;;22.02;3.85;;;20.40;63.70;;;;;;5056616;28;100316;-78
2021/01/29 12:33:28;;;;;;;13.57;4.25;;;20.60;62.40;;;;;;5038496;28;100974;-78
2021/01/29 12:36:23;;;;;;;23.23;5.40;;;20.70;62.30;;;;;;5025575;28;100949;-77
2021/01/29 12:39:33;;;;;;;23.25;5.47;;;20.60;60.90;;;;;;5040872;28;101005;-80
2021/01/29 12:42:42;;;;;;;16.15;5.13;;;20.60;60.60;;;;;;5056584;28;100934;-80
2021/01/29 12:46:15;;;;;;;14.23;4.50;;;20.80;60.90;;;;;;5004531;28;101502;-80
2021/01/29 12:49:00;;;;;;;14.25;4.30;;;21.00;60.20;;;;;;5034901;28;101420;-81
2021/01/29 12:51:40;;;;;;;16.65;4.40;;;21.00;60.00;;;;;;5020494;28;100217;-80
2021/01/29 12:54:47;;;;;;;17.27;4.95;;;21.10;60.30;;;;;;5033888;28;100892;-83
2021/01/29 12:57:18;;;;;;;18.95;4.68;;;21.10;60.00;;;;;;5018684;28;100579;-81
2021/01/29 13:00:07;;;;;;;17.15;5.22;;;21.10;60.10;;;;;;5037396;28;100097;-81
2021/01/29 13:02:59;;;;;;;15.05;4.80;;;21.10;60.40;;;;;;5037898;28;100181;-82
2021/01/29 13:05:35;;;;;;;17.75;4.68;;;21.00;60.70;;;;;;5040765;28;100819;-82
2021/01/29 13:08:29;;;;;;;14.30;4.30;;;20.90;61.90;;;;;;5056336;28;101094;-83
2021/01/29 13:11:00;;;;;;;12.75;4.38;;;20.80;61.10;;;;;;5056081;28;101799;-81
2021/01/29 13:13:50;;;;;;;11.15;4.32;;;21.00;60.60;;;;;;5054067;28;101466;-80
2021/01/29 13:19:08;;;;;;;11.98;3.78;;;21.30;59.70;;;;;;4985086;28;102360;-83
2021/01/29 13:21:52;;;;;;;16.88;4.15;;;21.30;59.30;;;;;;4940412;28;101899;-82
2021/01/29 13:24:26;;;;;;;18.02;4.65;;;21.40;59.60;;;;;;4962388;28;100999;-80
2021/01/29 13:26:52;;;;;;;34.63;5.72;;;21.60;59.40;;;;;;4973072;28;101370;-80
2021/01/29 13:29:25;;;;;;;28.52;5.43;;;21.70;59.40;;;;;;4977161;28;101226;-81
2021/01/29 13:31:53;;;;;;;35.42;6.18;;;21.80;58.50;;;;;;4977732;28;101044;-79
2021/01/29 13:35:03;;;;;;;26.50;6.00;;;21.80;58.70;;;;;;4979395;28;100185;-80
2021/01/29 13:38:09;;;;;;;37.80;6.23;;;21.90;58.60;;;;;;4993664;28;100165;-81
2021/01/29 13:41:37;;;;;;;24.17;5.95;;;21.90;58.50;;;;;;4995752;28;100890;-82
2021/01/29 13:45:16;;;;;;;29.40;6.00;;;21.90;58.40;;;;;;4995534;28;100751;-82
2021/01/29 13:48:41;;;;;;;18.80;4.40;;;22.00;58.00;;;;;;4996912;28;100391;-81
2021/01/29 13:51:38;;;;;;;20.23;4.75;;;22.00;58.70;;;;;;4996161;28;100886;-81
2021/01/29 13:54:11;;;;;;;20.15;4.43;;;21.80;59.20;;;;;;4981642;28;103449;-81
2021/01/29 13:57:40;;;;;;;19.10;4.95;;;21.70;59.60;;;;;;4938148;28;103568;-82
2021/01/29 14:00:31;;;;;;;15.52;5.07;;;21.50;60.00;;;;;;4995606;28;101001;-84